Villard, MN (56385)

3:03 PM CDT on July 06, 2015 (GMT -0500)
Sauk Centre | | Change Station
CLOSE
Current Station
Airport
Location: Sauk Centre,
Elevation: 1240 ft
Nearby Weather Stations

Elev 1240 ft 45.71 °N, 94.93 °W | Updated 9 minutes ago

Partly Cloudy
Partly Cloudy
70 °F
Feels Like 70 °F
N
15
Wind Variable Wind from NNW
Gusts 23 mph

Today
High -- | Low -- °F
--% Chance of Precip.
Yesterday
High -- | Low -- °F
Precip. -- in
5:37 AM 9:12 PM
Waning Gibbous, 72% visible
Pressure 29.99 in
Visibility 10.0 miles
Clouds Clear
Dew Point 52 °F
Humidity 52%
Rainfall 0.04 in
Snow Depth Not available.
UV 10 out of 12
Pollen .60 out of 12
Air Quality Not available.
Flu Activity Not available.
METAR KD39 061954Z AUTO 33013G20KT 10SM CLR 21/11 A2999 RMK AO2 T02130111

More Conditions Fewer Conditions

Pressure 29.99 in
Visibility 10.0 miles
Clouds Clear
Dew Point 52 °F
Humidity 52%
Rainfall 0.04 in
Snow Depth Not available.
UV 10 out of 12
Pollen .60 out of 12
Air Quality Not available.
Flu Activity Not available.
METAR KD39 061954Z AUTO 33013G20KT 10SM CLR 21/11 A2999 RMK AO2 T02130111

More Conditions Fewer Conditions

10-Day Weather Forecast

×

Almanac

Astronomy

Jul. 06, 2015 Rise Set
Actual Time
Civil Twilight
Nautical Twilight
Astronomical Twilight
Moon
Length of Visible Light
Length of Day
Tomorrow will be .
, % of the Moon is Illuminated

Today's Extremes

State Highs State Lows

Community

WunderPhotos

Upload Photos

1,835,625 photos uploaded!

WunderBlogs® & News

Nearby

Air Quality

  Air Quality AQ Index Pollutant
Not available.

Snow Depth

Station Depth Elevation

Earthquake Activity

City Distance Mag. Time & Date
Minimum magnitude displayed is 2.5.

Coastal Water Temperatures

Place Temperature

Stations

Nearby Weather Stations

Station Location Temp. Windchill Dew Point Humidity Wind Precip. Elev Updated Type